sensor_id;sensor_type;location;lat;lon;timestamp;P1;durP1;ratioP1;P2;durP2;ratioP2
67715;SDS011;54508;43.238;25.306;2023-05-01T00:01:46;5.05;;;3.38;;
67715;SDS011;54508;43.238;25.306;2023-05-01T00:04:11;6.47;;;3.40;;
67715;SDS011;54508;43.238;25.306;2023-05-01T00:06:36;6.27;;;3.80;;
67715;SDS011;54508;43.238;25.306;2023-05-01T00:09:02;6.50;;;3.90;;
67715;SDS011;54508;43.238;25.306;2023-05-01T00:11:27;6.15;;;3.60;;
67715;SDS011;54508;43.238;25.306;2023-05-01T00:13:53;3.88;;;3.05;;
67715;SDS011;54508;43.238;25.306;2023-05-01T00:16:18;5.57;;;3.87;;
67715;SDS011;54508;43.238;25.306;2023-05-01T00:18:44;5.57;;;3.57;;
67715;SDS011;54508;43.238;25.306;2023-05-01T00:21:09;5.67;;;3.30;;
67715;SDS011;54508;43.238;25.306;2023-05-01T00:23:35;5.05;;;3.15;;
67715;SDS011;54508;43.238;25.306;2023-05-01T00:26:00;5.03;;;3.53;;
67715;SDS011;54508;43.238;25.306;2023-05-01T00:28:26;8.40;;;3.90;;
67715;SDS011;54508;43.238;25.306;2023-05-01T00:30:51;5.97;;;3.47;;
67715;SDS011;54508;43.238;25.306;2023-05-01T00:33:17;8.07;;;3.40;;
67715;SDS011;54508;43.238;25.306;2023-05-01T00:35:43;6.00;;;3.60;;
67715;SDS011;54508;43.238;25.306;2023-05-01T00:38:09;4.38;;;3.40;;
67715;SDS011;54508;43.238;25.306;2023-05-01T00:40:40;5.93;;;3.53;;
67715;SDS011;54508;43.238;25.306;2023-05-01T00:43:06;6.65;;;4.03;;
67715;SDS011;54508;43.238;25.306;2023-05-01T00:45:32;6.20;;;3.67;;
67715;SDS011;54508;43.238;25.306;2023-05-01T00:47:57;5.53;;;3.47;;
67715;SDS011;54508;43.238;25.306;2023-05-01T00:50:23;5.00;;;3.67;;
67715;SDS011;54508;43.238;25.306;2023-05-01T00:52:48;6.13;;;3.88;;
67715;SDS011;54508;43.238;25.306;2023-05-01T00:55:14;5.07;;;3.70;;
67715;SDS011;54508;43.238;25.306;2023-05-01T00:57:39;6.57;;;3.70;;
67715;SDS011;54508;43.238;25.306;2023-05-01T01:00:05;5.00;;;3.63;;
67715;SDS011;54508;43.238;25.306;2023-05-01T01:02:32;6.18;;;3.70;;
67715;SDS011;54508;43.238;25.306;2023-05-01T01:04:58;4.20;;;3.73;;
67715;SDS011;54508;43.238;25.306;2023-05-01T01:07:36;5.88;;;3.75;;
67715;SDS011;54508;43.238;25.306;2023-05-01T01:13:53;4.60;;;3.55;;
67715;SDS011;54508;43.238;25.306;2023-05-01T01:19:17;5.32;;;3.60;;
67715;SDS011;54508;43.238;25.306;2023-05-01T01:22:11;4.53;;;3.20;;
67715;SDS011;54508;43.238;25.306;2023-05-01T01:24:47;5.97;;;3.63;;
67715;SDS011;54508;43.238;25.306;2023-05-01T01:27:57;5.57;;;3.90;;
67715;SDS011;54508;43.238;25.306;2023-05-01T01:33:21;4.90;;;3.90;;
67715;SDS011;54508;43.238;25.306;2023-05-01T01:36:01;7.28;;;4.05;;
67715;SDS011;54508;43.238;25.306;2023-05-01T01:38:36;5.13;;;3.67;;
67715;SDS011;54508;43.238;25.306;2023-05-01T01:41:07;6.70;;;3.95;;
67715;SDS011;54508;43.238;25.306;2023-05-01T01:43:41;5.35;;;3.80;;
67715;SDS011;54508;43.238;25.306;2023-05-01T01:46:09;5.18;;;3.83;;
67715;SDS011;54508;43.238;25.306;2023-05-01T01:48:36;5.00;;;3.40;;
67715;SDS011;54508;43.238;25.306;2023-05-01T01:51:05;5.87;;;3.47;;
67715;SDS011;54508;43.238;25.306;2023-05-01T01:53:33;5.55;;;3.70;;
67715;SDS011;54508;43.238;25.306;2023-05-01T01:56:02;6.25;;;3.80;;
67715;SDS011;54508;43.238;25.306;2023-05-01T01:58:28;6.07;;;3.58;;
67715;SDS011;54508;43.238;25.306;2023-05-01T02:00:54;5.00;;;3.95;;
67715;SDS011;54508;43.238;25.306;2023-05-01T02:03:20;4.57;;;3.30;;
67715;SDS011;54508;43.238;25.306;2023-05-01T02:05:48;7.28;;;3.78;;
67715;SDS011;54508;43.238;25.306;2023-05-01T02:08:13;5.88;;;3.80;;
67715;SDS011;54508;43.238;25.306;2023-05-01T02:10:40;7.00;;;3.90;;
67715;SDS011;54508;43.238;25.306;2023-05-01T02:13:06;4.82;;;3.60;;
67715;SDS011;54508;43.238;25.306;2023-05-01T02:15:32;4.63;;;3.30;;
67715;SDS011;54508;43.238;25.306;2023-05-01T02:18:00;5.03;;;3.38;;
67715;SDS011;54508;43.238;25.306;2023-05-01T02:20:26;4.65;;;3.60;;
67715;SDS011;54508;43.238;25.306;2023-05-01T02:22:52;4.60;;;3.53;;
67715;SDS011;54508;43.238;25.306;2023-05-01T02:25:18;5.00;;;3.27;;
67715;SDS011;54508;43.238;25.306;2023-05-01T02:27:46;6.63;;;3.45;;
67715;SDS011;54508;43.238;25.306;2023-05-01T02:30:15;4.70;;;3.78;;
67715;SDS011;54508;43.238;25.306;2023-05-01T02:32:42;5.75;;;3.45;;
67715;SDS011;54508;43.238;25.306;2023-05-01T02:35:08;6.18;;;3.72;;
67715;SDS011;54508;43.238;25.306;2023-05-01T02:37:34;5.22;;;3.80;;
67715;SDS011;54508;43.238;25.306;2023-05-01T02:40:00;4.80;;;3.40;;
67715;SDS011;54508;43.238;25.306;2023-05-01T02:42:26;4.57;;;3.55;;
67715;SDS011;54508;43.238;25.306;2023-05-01T02:44:54;6.35;;;3.55;;
67715;SDS011;54508;43.238;25.306;2023-05-01T02:47:22;5.45;;;3.40;;
67715;SDS011;54508;43.238;25.306;2023-05-01T02:49:48;5.57;;;3.70;;
67715;SDS011;54508;43.238;25.306;2023-05-01T02:52:15;4.53;;;3.42;;
67715;SDS011;54508;43.238;25.306;2023-05-01T02:54:42;4.15;;;3.65;;
67715;SDS011;54508;43.238;25.306;2023-05-01T02:57:09;4.65;;;3.40;;
67715;SDS011;54508;43.238;25.306;2023-05-01T02:59:38;8.00;;;3.40;;
67715;SDS011;54508;43.238;25.306;2023-05-01T03:02:05;6.07;;;3.50;;
67715;SDS011;54508;43.238;25.306;2023-05-01T03:04:30;5.50;;;3.63;;
67715;SDS011;54508;43.238;25.306;2023-05-01T03:06:56;4.77;;;3.63;;
67715;SDS011;54508;43.238;25.306;2023-05-01T03:09:21;5.50;;;3.50;;
67715;SDS011;54508;43.238;25.306;2023-05-01T03:11:47;5.47;;;3.50;;
67715;SDS011;54508;43.238;25.306;2023-05-01T03:14:12;4.57;;;3.23;;
67715;SDS011;54508;43.238;25.306;2023-05-01T03:16:38;4.57;;;3.40;;
67715;SDS011;54508;43.238;25.306;2023-05-01T03:19:04;4.28;;;3.45;;
67715;SDS011;54508;43.238;25.306;2023-05-01T03:21:30;5.18;;;3.28;;
67715;SDS011;54508;43.238;25.306;2023-05-01T03:23:56;3.80;;;3.15;;
67715;SDS011;54508;43.238;25.306;2023-05-01T03:26:22;5.97;;;3.30;;
67715;SDS011;54508;43.238;25.306;2023-05-01T03:28:48;4.70;;;3.30;;
67715;SDS011;54508;43.238;25.306;2023-05-01T03:31:13;7.15;;;3.60;;
67715;SDS011;54508;43.238;25.306;2023-05-01T03:33:39;5.60;;;3.27;;
67715;SDS011;54508;43.238;25.306;2023-05-01T03:36:05;4.50;;;3.25;;
67715;SDS011;54508;43.238;25.306;2023-05-01T03:38:31;5.37;;;3.53;;
67715;SDS011;54508;43.238;25.306;2023-05-01T03:40:57;5.03;;;3.80;;
67715;SDS011;54508;43.238;25.306;2023-05-01T03:43:23;6.00;;;3.33;;
67715;SDS011;54508;43.238;25.306;2023-05-01T03:45:49;5.25;;;3.50;;
67715;SDS011;54508;43.238;25.306;2023-05-01T03:48:15;5.22;;;3.25;;
67715;SDS011;54508;43.238;25.306;2023-05-01T03:50:41;7.22;;;3.60;;
67715;SDS011;54508;43.238;25.306;2023-05-01T03:53:07;6.50;;;3.60;;
67715;SDS011;54508;43.238;25.306;2023-05-01T03:55:32;6.07;;;3.70;;
67715;SDS011;54508;43.238;25.306;2023-05-01T03:57:58;3.50;;;2.97;;
67715;SDS011;54508;43.238;25.306;2023-05-01T04:00:23;4.20;;;3.47;;
67715;SDS011;54508;43.238;25.306;2023-05-01T04:02:49;4.82;;;3.40;;
67715;SDS011;54508;43.238;25.306;2023-05-01T04:05:14;5.13;;;3.50;;
67715;SDS011;54508;43.238;25.306;2023-05-01T04:07:40;4.87;;;3.40;;
67715;SDS011;54508;43.238;25.306;2023-05-01T04:10:05;6.05;;;3.47;;
67715;SDS011;54508;43.238;25.306;2023-05-01T04:12:33;5.47;;;3.80;;
67715;SDS011;54508;43.238;25.306;2023-05-01T04:14:59;7.05;;;3.47;;
67715;SDS011;54508;43.238;25.306;2023-05-01T04:17:25;7.22;;;3.85;;
67715;SDS011;54508;43.238;25.306;2023-05-01T04:19:50;5.43;;;3.88;;
67715;SDS011;54508;43.238;25.306;2023-05-01T04:22:16;4.87;;;3.77;;
67715;SDS011;54508;43.238;25.306;2023-05-01T04:24:42;6.35;;;3.55;;
67715;SDS011;54508;43.238;25.306;2023-05-01T04:27:07;5.10;;;3.33;;
67715;SDS011;54508;43.238;25.306;2023-05-01T04:29:33;5.13;;;3.63;;
67715;SDS011;54508;43.238;25.306;2023-05-01T04:31:58;5.13;;;3.00;;
67715;SDS011;54508;43.238;25.306;2023-05-01T04:34:24;5.43;;;3.30;;
67715;SDS011;54508;43.238;25.306;2023-05-01T04:36:53;3.70;;;2.88;;
67715;SDS011;54508;43.238;25.306;2023-05-01T04:39:19;5.88;;;3.83;;
67715;SDS011;54508;43.238;25.306;2023-05-01T04:41:44;5.43;;;3.40;;
67715;SDS011;54508;43.238;25.306;2023-05-01T04:44:10;4.47;;;3.37;;
67715;SDS011;54508;43.238;25.306;2023-05-01T04:46:35;4.70;;;3.95;;
67715;SDS011;54508;43.238;25.306;2023-05-01T04:49:01;5.40;;;3.78;;
67715;SDS011;54508;43.238;25.306;2023-05-01T04:51:26;4.50;;;3.17;;
67715;SDS011;54508;43.238;25.306;2023-05-01T04:53:53;7.03;;;3.78;;
67715;SDS011;54508;43.238;25.306;2023-05-01T04:56:19;6.00;;;3.80;;
67715;SDS011;54508;43.238;25.306;2023-05-01T04:58:45;6.60;;;3.30;;
67715;SDS011;54508;43.238;25.306;2023-05-01T05:01:10;5.67;;;3.43;;
67715;SDS011;54508;43.238;25.306;2023-05-01T05:03:36;6.10;;;3.75;;
67715;SDS011;54508;43.238;25.306;2023-05-01T05:06:01;4.40;;;3.80;;
67715;SDS011;54508;43.238;25.306;2023-05-01T05:08:27;5.65;;;3.40;;
67715;SDS011;54508;43.238;25.306;2023-05-01T05:10:57;5.80;;;4.10;;
67715;SDS011;54508;43.238;25.306;2023-05-01T05:13:24;6.78;;;3.92;;
67715;SDS011;54508;43.238;25.306;2023-05-01T05:15:49;4.30;;;3.40;;
67715;SDS011;54508;43.238;25.306;2023-05-01T05:18:15;5.28;;;3.47;;
67715;SDS011;54508;43.238;25.306;2023-05-01T05:20:40;4.97;;;3.50;;
67715;SDS011;54508;43.238;25.306;2023-05-01T05:23:06;5.63;;;3.70;;
67715;SDS011;54508;43.238;25.306;2023-05-01T05:25:31;5.27;;;3.57;;
67715;SDS011;54508;43.238;25.306;2023-05-01T05:27:57;11.70;;;6.40;;
67715;SDS011;54508;43.238;25.306;2023-05-01T05:30:24;25.38;;;15.40;;
67715;SDS011;54508;43.238;25.306;2023-05-01T05:32:51;39.25;;;22.08;;
67715;SDS011;54508;43.238;25.306;2023-05-01T05:35:16;16.23;;;10.63;;
67715;SDS011;54508;43.238;25.306;2023-05-01T05:37:42;14.70;;;7.80;;
67715;SDS011;54508;43.238;25.306;2023-05-01T05:40:08;9.50;;;5.45;;
67715;SDS011;54508;43.238;25.306;2023-05-01T05:42:34;16.13;;;6.07;;
67715;SDS011;54508;43.238;25.306;2023-05-01T05:44:59;15.20;;;6.57;;
67715;SDS011;54508;43.238;25.306;2023-05-01T05:47:24;10.10;;;6.00;;
67715;SDS011;54508;43.238;25.306;2023-05-01T05:49:50;14.33;;;5.50;;
67715;SDS011;54508;43.238;25.306;2023-05-01T05:52:15;10.70;;;5.45;;
67715;SDS011;54508;43.238;25.306;2023-05-01T05:54:41;10.40;;;5.30;;
67715;SDS011;54508;43.238;25.306;2023-05-01T05:57:07;19.07;;;6.13;;
67715;SDS011;54508;43.238;25.306;2023-05-01T05:59:32;9.38;;;6.03;;
67715;SDS011;54508;43.238;25.306;2023-05-01T06:01:58;9.83;;;5.37;;
67715;SDS011;54508;43.238;25.306;2023-05-01T06:04:24;6.40;;;5.07;;
67715;SDS011;54508;43.238;25.306;2023-05-01T06:06:49;9.43;;;6.10;;
67715;SDS011;54508;43.238;25.306;2023-05-01T06:09:15;12.75;;;5.50;;
67715;SDS011;54508;43.238;25.306;2023-05-01T06:11:43;18.65;;;6.20;;
67715;SDS011;54508;43.238;25.306;2023-05-01T06:14:09;12.05;;;6.03;;
67715;SDS011;54508;43.238;25.306;2023-05-01T06:16:34;8.25;;;5.55;;
67715;SDS011;54508;43.238;25.306;2023-05-01T06:19:00;13.50;;;5.40;;
67715;SDS011;54508;43.238;25.306;2023-05-01T06:21:25;13.13;;;5.87;;
67715;SDS011;54508;43.238;25.306;2023-05-01T06:23:51;11.90;;;5.35;;
67715;SDS011;54508;43.238;25.306;2023-05-01T06:26:16;5.97;;;4.95;;
67715;SDS011;54508;43.238;25.306;2023-05-01T06:28:42;5.90;;;5.30;;
67715;SDS011;54508;43.238;25.306;2023-05-01T06:31:07;8.53;;;5.13;;
67715;SDS011;54508;43.238;25.306;2023-05-01T06:33:33;12.53;;;5.60;;
67715;SDS011;54508;43.238;25.306;2023-05-01T06:35:58;8.32;;;5.20;;
67715;SDS011;54508;43.238;25.306;2023-05-01T06:38:27;7.10;;;5.53;;
67715;SDS011;54508;43.238;25.306;2023-05-01T06:40:53;5.55;;;4.90;;
67715;SDS011;54508;43.238;25.306;2023-05-01T06:43:19;9.98;;;5.50;;
67715;SDS011;54508;43.238;25.306;2023-05-01T06:45:44;7.28;;;5.40;;
67715;SDS011;54508;43.238;25.306;2023-05-01T06:48:10;7.43;;;4.90;;
67715;SDS011;54508;43.238;25.306;2023-05-01T06:50:35;12.63;;;4.87;;
67715;SDS011;54508;43.238;25.306;2023-05-01T06:53:01;18.90;;;7.38;;
67715;SDS011;54508;43.238;25.306;2023-05-01T06:55:29;36.70;;;24.83;;
67715;SDS011;54508;43.238;25.306;2023-05-01T06:58:02;23.48;;;14.82;;
67715;SDS011;54508;43.238;25.306;2023-05-01T07:00:28;14.25;;;8.77;;
67715;SDS011;54508;43.238;25.306;2023-05-01T07:02:54;9.02;;;5.72;;
67715;SDS011;54508;43.238;25.306;2023-05-01T07:05:20;18.97;;;5.87;;
67715;SDS011;54508;43.238;25.306;2023-05-01T07:07:45;9.90;;;5.13;;
67715;SDS011;54508;43.238;25.306;2023-05-01T07:10:11;5.63;;;4.95;;
67715;SDS011;54508;43.238;25.306;2023-05-01T07:12:36;8.77;;;4.67;;
67715;SDS011;54508;43.238;25.306;2023-05-01T07:15:02;11.97;;;5.70;;
67715;SDS011;54508;43.238;25.306;2023-05-01T07:17:28;7.05;;;5.20;;
67715;SDS011;54508;43.238;25.306;2023-05-01T07:19:53;8.70;;;4.70;;
67715;SDS011;54508;43.238;25.306;2023-05-01T07:22:19;9.52;;;5.40;;
67715;SDS011;54508;43.238;25.306;2023-05-01T07:24:44;5.95;;;5.35;;
67715;SDS011;54508;43.238;25.306;2023-05-01T07:27:10;7.83;;;5.73;;
67715;SDS011;54508;43.238;25.306;2023-05-01T07:29:37;8.15;;;5.60;;
67715;SDS011;54508;43.238;25.306;2023-05-01T07:32:04;10.13;;;5.57;;
67715;SDS011;54508;43.238;25.306;2023-05-01T07:34:30;7.28;;;5.68;;
67715;SDS011;54508;43.238;25.306;2023-05-01T07:36:56;6.97;;;5.70;;
67715;SDS011;54508;43.238;25.306;2023-05-01T07:39:21;12.40;;;5.07;;
67715;SDS011;54508;43.238;25.306;2023-05-01T07:41:47;7.70;;;6.77;;
67715;SDS011;54508;43.238;25.306;2023-05-01T07:44:12;12.98;;;7.15;;
67715;SDS011;54508;43.238;25.306;2023-05-01T07:46:38;12.37;;;6.20;;
67715;SDS011;54508;43.238;25.306;2023-05-01T07:49:03;10.87;;;5.97;;
67715;SDS011;54508;43.238;25.306;2023-05-01T07:51:29;14.68;;;5.55;;
67715;SDS011;54508;43.238;25.306;2023-05-01T07:53:55;9.63;;;5.82;;
67715;SDS011;54508;43.238;25.306;2023-05-01T07:56:21;11.13;;;6.23;;
67715;SDS011;54508;43.238;25.306;2023-05-01T07:58:46;17.15;;;5.72;;
67715;SDS011;54508;43.238;25.306;2023-05-01T08:01:12;8.95;;;5.68;;
67715;SDS011;54508;43.238;25.306;2023-05-01T08:03:38;7.63;;;5.47;;
67715;SDS011;54508;43.238;25.306;2023-05-01T08:06:04;8.50;;;5.43;;
67715;SDS011;54508;43.238;25.306;2023-05-01T08:08:30;12.48;;;5.85;;
67715;SDS011;54508;43.238;25.306;2023-05-01T08:10:55;6.47;;;5.87;;
67715;SDS011;54508;43.238;25.306;2023-05-01T08:13:21;14.70;;;5.53;;
67715;SDS011;54508;43.238;25.306;2023-05-01T08:15:46;10.30;;;5.60;;
67715;SDS011;54508;43.238;25.306;2023-05-01T08:18:12;6.53;;;5.13;;
67715;SDS011;54508;43.238;25.306;2023-05-01T08:20:43;6.78;;;5.40;;
67715;SDS011;54508;43.238;25.306;2023-05-01T08:23:10;7.63;;;5.07;;
67715;SDS011;54508;43.238;25.306;2023-05-01T08:25:35;7.30;;;5.30;;
67715;SDS011;54508;43.238;25.306;2023-05-01T08:28:01;5.80;;;4.53;;
67715;SDS011;54508;43.238;25.306;2023-05-01T08:30:27;5.80;;;5.13;;
67715;SDS011;54508;43.238;25.306;2023-05-01T08:32:52;6.57;;;5.00;;
67715;SDS011;54508;43.238;25.306;2023-05-01T08:35:18;7.13;;;4.60;;
67715;SDS011;54508;43.238;25.306;2023-05-01T08:37:44;6.22;;;4.70;;
67715;SDS011;54508;43.238;25.306;2023-05-01T08:40:10;6.90;;;4.60;;
67715;SDS011;54508;43.238;25.306;2023-05-01T08:42:35;5.80;;;5.00;;
67715;SDS011;54508;43.238;25.306;2023-05-01T08:45:04;12.60;;;4.65;;
67715;SDS011;54508;43.238;25.306;2023-05-01T08:47:31;7.93;;;5.20;;
67715;SDS011;54508;43.238;25.306;2023-05-01T08:50:01;17.75;;;5.40;;
67715;SDS011;54508;43.238;25.306;2023-05-01T08:52:28;13.48;;;5.10;;
67715;SDS011;54508;43.238;25.306;2023-05-01T08:54:54;8.93;;;4.47;;
67715;SDS011;54508;43.238;25.306;2023-05-01T08:57:21;10.18;;;5.22;;
67715;SDS011;54508;43.238;25.306;2023-05-01T08:59:46;11.52;;;5.10;;
67715;SDS011;54508;43.238;25.306;2023-05-01T09:02:16;11.20;;;4.53;;
67715;SDS011;54508;43.238;25.306;2023-05-01T09:04:48;7.28;;;5.25;;
67715;SDS011;54508;43.238;25.306;2023-05-01T09:07:15;12.52;;;4.82;;
67715;SDS011;54508;43.238;25.306;2023-05-01T09:09:41;8.30;;;4.75;;
67715;SDS011;54508;43.238;25.306;2023-05-01T09:14:52;6.82;;;4.38;;
67715;SDS011;54508;43.238;25.306;2023-05-01T09:17:22;7.53;;;4.53;;
67715;SDS011;54508;43.238;25.306;2023-05-01T09:19:51;8.00;;;4.17;;
67715;SDS011;54508;43.238;25.306;2023-05-01T09:22:17;10.05;;;4.72;;
67715;SDS011;54508;43.238;25.306;2023-05-01T09:24:43;5.75;;;4.13;;
67715;SDS011;54508;43.238;25.306;2023-05-01T09:27:10;9.10;;;4.40;;
67715;SDS011;54508;43.238;25.306;2023-05-01T09:32:13;5.60;;;3.53;;
67715;SDS011;54508;43.238;25.306;2023-05-01T09:34:42;5.50;;;3.58;;
67715;SDS011;54508;43.238;25.306;2023-05-01T09:37:12;6.03;;;3.53;;
67715;SDS011;54508;43.238;25.306;2023-05-01T09:40:01;8.93;;;3.53;;
67715;SDS011;54508;43.238;25.306;2023-05-01T09:42:30;7.03;;;3.73;;
67715;SDS011;54508;43.238;25.306;2023-05-01T09:44:58;4.85;;;3.83;;
67715;SDS011;54508;43.238;25.306;2023-05-01T09:47:28;11.55;;;4.00;;
67715;SDS011;54508;43.238;25.306;2023-05-01T09:49:54;5.63;;;3.90;;
67715;SDS011;54508;43.238;25.306;2023-05-01T09:52:21;4.10;;;3.47;;
67715;SDS011;54508;43.238;25.306;2023-05-01T09:54:47;8.82;;;3.85;;
67715;SDS011;54508;43.238;25.306;2023-05-01T09:57:12;4.67;;;3.83;;
67715;SDS011;54508;43.238;25.306;2023-05-01T09:59:37;5.80;;;3.70;;
67715;SDS011;54508;43.238;25.306;2023-05-01T10:02:03;5.03;;;4.07;;
67715;SDS011;54508;43.238;25.306;2023-05-01T10:04:32;5.20;;;3.60;;
67715;SDS011;54508;43.238;25.306;2023-05-01T10:07:00;4.55;;;3.55;;
67715;SDS011;54508;43.238;25.306;2023-05-01T10:09:36;4.57;;;3.60;;
67715;SDS011;54508;43.238;25.306;2023-05-01T10:12:01;5.80;;;3.57;;
67715;SDS011;54508;43.238;25.306;2023-05-01T10:14:27;5.50;;;3.47;;
67715;SDS011;54508;43.238;25.306;2023-05-01T10:16:54;3.93;;;3.40;;
67715;SDS011;54508;43.238;25.306;2023-05-01T10:19:21;5.72;;;3.55;;
67715;SDS011;54508;43.238;25.306;2023-05-01T10:21:47;4.13;;;3.20;;
67715;SDS011;54508;43.238;25.306;2023-05-01T10:24:13;4.77;;;3.37;;
67715;SDS011;54508;43.238;25.306;2023-05-01T10:26:40;5.22;;;3.35;;
67715;SDS011;54508;43.238;25.306;2023-05-01T10:29:07;5.63;;;3.75;;
67715;SDS011;54508;43.238;25.306;2023-05-01T10:31:33;4.70;;;3.53;;
67715;SDS011;54508;43.238;25.306;2023-05-01T10:33:59;4.13;;;3.50;;
67715;SDS011;54508;43.238;25.306;2023-05-01T10:36:39;6.38;;;3.35;;
67715;SDS011;54508;43.238;25.306;2023-05-01T10:39:17;6.30;;;3.55;;
67715;SDS011;54508;43.238;25.306;2023-05-01T10:44:22;4.63;;;3.20;;
67715;SDS011;54508;43.238;25.306;2023-05-01T10:46:48;5.40;;;3.65;;
67715;SDS011;54508;43.238;25.306;2023-05-01T10:49:13;4.60;;;3.30;;
67715;SDS011;54508;43.238;25.306;2023-05-01T10:54:24;4.50;;;3.20;;
67715;SDS011;54508;43.238;25.306;2023-05-01T10:56:51;8.17;;;3.10;;
67715;SDS011;54508;43.238;25.306;2023-05-01T10:59:17;6.43;;;3.30;;
67715;SDS011;54508;43.238;25.306;2023-05-01T11:01:44;4.75;;;3.10;;
67715;SDS011;54508;43.238;25.306;2023-05-01T11:09:36;3.95;;;3.40;;
67715;SDS011;54508;43.238;25.306;2023-05-01T11:12:03;5.60;;;3.28;;
67715;SDS011;54508;43.238;25.306;2023-05-01T11:22:32;5.25;;;3.47;;
67715;SDS011;54508;43.238;25.306;2023-05-01T11:24:57;3.55;;;3.13;;
67715;SDS011;54508;43.238;25.306;2023-05-01T11:27:23;11.50;;;3.40;;
67715;SDS011;54508;43.238;25.306;2023-05-01T11:29:49;8.30;;;3.30;;
67715;SDS011;54508;43.238;25.306;2023-05-01T11:32:20;8.77;;;3.10;;
67715;SDS011;54508;43.238;25.306;2023-05-01T11:34:48;4.35;;;3.25;;
67715;SDS011;54508;43.238;25.306;2023-05-01T11:37:15;5.68;;;3.25;;
67715;SDS011;54508;43.238;25.306;2023-05-01T11:39:50;12.87;;;3.20;;
67715;SDS011;54508;43.238;25.306;2023-05-01T11:42:19;5.97;;;3.30;;
67715;SDS011;54508;43.238;25.306;2023-05-01T11:45:03;13.40;;;3.30;;
67715;SDS011;54508;43.238;25.306;2023-05-01T11:47:33;6.20;;;3.20;;
67715;SDS011;54508;43.238;25.306;2023-05-01T11:49:59;8.38;;;3.30;;
67715;SDS011;54508;43.238;25.306;2023-05-01T11:52:25;14.15;;;3.25;;
67715;SDS011;54508;43.238;25.306;2023-05-01T11:54:52;10.98;;;3.30;;
67715;SDS011;54508;43.238;25.306;2023-05-01T11:57:18;8.63;;;3.73;;
67715;SDS011;54508;43.238;25.306;2023-05-01T11:59:47;13.25;;;4.15;;
67715;SDS011;54508;43.238;25.306;2023-05-01T12:02:19;14.70;;;3.40;;
67715;SDS011;54508;43.238;25.306;2023-05-01T12:04:45;12.57;;;3.58;;
67715;SDS011;54508;43.238;25.306;2023-05-01T12:07:23;12.20;;;3.55;;
67715;SDS011;54508;43.238;25.306;2023-05-01T12:09:48;13.57;;;3.40;;
67715;SDS011;54508;43.238;25.306;2023-05-01T12:12:15;15.90;;;3.92;;
67715;SDS011;54508;43.238;25.306;2023-05-01T12:14:41;11.32;;;3.63;;
67715;SDS011;54508;43.238;25.306;2023-05-01T12:17:06;14.43;;;3.40;;
67715;SDS011;54508;43.238;25.306;2023-05-01T12:19:33;12.63;;;4.00;;
67715;SDS011;54508;43.238;25.306;2023-05-01T12:22:05;16.10;;;4.20;;
67715;SDS011;54508;43.238;25.306;2023-05-01T12:24:32;25.48;;;4.30;;
67715;SDS011;54508;43.238;25.306;2023-05-01T12:27:00;23.40;;;5.00;;
67715;SDS011;54508;43.238;25.306;2023-05-01T12:29:38;12.88;;;3.92;;
67715;SDS011;54508;43.238;25.306;2023-05-01T12:32:05;17.17;;;4.10;;
67715;SDS011;54508;43.238;25.306;2023-05-01T12:34:31;16.20;;;4.55;;
67715;SDS011;54508;43.238;25.306;2023-05-01T12:36:58;21.45;;;4.28;;
67715;SDS011;54508;43.238;25.306;2023-05-01T12:39:23;17.30;;;4.37;;
67715;SDS011;54508;43.238;25.306;2023-05-01T12:41:50;13.45;;;3.88;;
67715;SDS011;54508;43.238;25.306;2023-05-01T12:44:16;32.23;;;5.03;;
67715;SDS011;54508;43.238;25.306;2023-05-01T12:46:58;22.25;;;4.40;;
67715;SDS011;54508;43.238;25.306;2023-05-01T12:49:25;16.63;;;4.32;;
67715;SDS011;54508;43.238;25.306;2023-05-01T12:51:52;12.82;;;4.10;;
67715;SDS011;54508;43.238;25.306;2023-05-01T12:54:29;13.75;;;3.90;;
67715;SDS011;54508;43.238;25.306;2023-05-01T12:57:05;19.10;;;4.07;;
67715;SDS011;54508;43.238;25.306;2023-05-01T12:59:33;16.25;;;4.25;;
67715;SDS011;54508;43.238;25.306;2023-05-01T13:02:03;17.88;;;4.10;;
67715;SDS011;54508;43.238;25.306;2023-05-01T13:04:30;12.30;;;4.72;;
67715;SDS011;54508;43.238;25.306;2023-05-01T13:06:56;13.07;;;4.07;;
67715;SDS011;54508;43.238;25.306;2023-05-01T13:09:22;7.35;;;3.33;;
67715;SDS011;54508;43.238;25.306;2023-05-01T13:11:55;18.52;;;3.67;;
67715;SDS011;54508;43.238;25.306;2023-05-01T13:14:24;19.73;;;4.05;;
67715;SDS011;54508;43.238;25.306;2023-05-01T13:16:50;15.57;;;3.87;;
67715;SDS011;54508;43.238;25.306;2023-05-01T13:19:25;18.08;;;3.55;;
67715;SDS011;54508;43.238;25.306;2023-05-01T13:21:52;10.25;;;3.58;;
67715;SDS011;54508;43.238;25.306;2023-05-01T13:24:34;20.83;;;3.63;;
67715;SDS011;54508;43.238;25.306;2023-05-01T13:27:00;9.68;;;3.53;;
67715;SDS011;54508;43.238;25.306;2023-05-01T13:29:26;16.20;;;3.50;;
67715;SDS011;54508;43.238;25.306;2023-05-01T13:31:53;15.88;;;3.38;;
67715;SDS011;54508;43.238;25.306;2023-05-01T13:34:28;16.33;;;3.90;;
67715;SDS011;54508;43.238;25.306;2023-05-01T13:36:55;13.27;;;4.13;;
67715;SDS011;54508;43.238;25.306;2023-05-01T13:39:21;10.43;;;3.63;;
67715;SDS011;54508;43.238;25.306;2023-05-01T13:41:48;21.27;;;4.60;;
67715;SDS011;54508;43.238;25.306;2023-05-01T13:44:14;22.00;;;4.07;;
67715;SDS011;54508;43.238;25.306;2023-05-01T13:46:40;13.00;;;3.72;;
67715;SDS011;54508;43.238;25.306;2023-05-01T13:49:06;17.27;;;4.60;;
67715;SDS011;54508;43.238;25.306;2023-05-01T13:51:32;17.70;;;3.60;;
67715;SDS011;54508;43.238;25.306;2023-05-01T13:54:00;20.73;;;4.80;;
67715;SDS011;54508;43.238;25.306;2023-05-01T13:56:27;23.67;;;4.40;;
67715;SDS011;54508;43.238;25.306;2023-05-01T13:58:52;14.40;;;4.03;;
67715;SDS011;54508;43.238;25.306;2023-05-01T14:01:19;16.47;;;3.60;;
67715;SDS011;54508;43.238;25.306;2023-05-01T14:03:46;17.80;;;3.75;;
67715;SDS011;54508;43.238;25.306;2023-05-01T14:06:13;20.48;;;4.47;;
67715;SDS011;54508;43.238;25.306;2023-05-01T14:08:40;15.48;;;4.25;;
67715;SDS011;54508;43.238;25.306;2023-05-01T14:11:07;18.60;;;4.00;;
67715;SDS011;54508;43.238;25.306;2023-05-01T14:13:34;15.97;;;4.13;;
67715;SDS011;54508;43.238;25.306;2023-05-01T14:16:00;19.35;;;4.82;;
67715;SDS011;54508;43.238;25.306;2023-05-01T14:18:27;19.60;;;4.82;;
67715;SDS011;54508;43.238;25.306;2023-05-01T14:20:52;19.73;;;3.67;;
67715;SDS011;54508;43.238;25.306;2023-05-01T14:23:18;23.88;;;4.45;;
67715;SDS011;54508;43.238;25.306;2023-05-01T14:25:45;18.20;;;4.05;;
67715;SDS011;54508;43.238;25.306;2023-05-01T14:28:12;17.10;;;4.80;;
67715;SDS011;54508;43.238;25.306;2023-05-01T14:30:39;17.30;;;4.68;;
67715;SDS011;54508;43.238;25.306;2023-05-01T14:35:32;12.57;;;3.70;;
67715;SDS011;54508;43.238;25.306;2023-05-01T14:37:59;16.55;;;4.05;;
67715;SDS011;54508;43.238;25.306;2023-05-01T14:40:38;19.30;;;3.00;;
67715;SDS011;54508;43.238;25.306;2023-05-01T14:43:05;14.25;;;3.75;;
67715;SDS011;54508;43.238;25.306;2023-05-01T14:45:33;9.40;;;2.72;;
67715;SDS011;54508;43.238;25.306;2023-05-01T14:48:00;12.02;;;3.00;;
67715;SDS011;54508;43.238;25.306;2023-05-01T14:50:26;13.70;;;3.27;;
67715;SDS011;54508;43.238;25.306;2023-05-01T14:52:52;11.85;;;3.10;;
67715;SDS011;54508;43.238;25.306;2023-05-01T14:55:18;14.27;;;3.90;;
67715;SDS011;54508;43.238;25.306;2023-05-01T14:57:47;18.63;;;3.60;;
67715;SDS011;54508;43.238;25.306;2023-05-01T15:00:12;13.32;;;3.75;;
67715;SDS011;54508;43.238;25.306;2023-05-01T15:02:39;81.67;;;7.30;;
67715;SDS011;54508;43.238;25.306;2023-05-01T15:05:04;154.13;;;11.63;;